Time;durP1;ratioP1;P1;durP2;ratioP2;P2;SDS_P1;SDS_P2;PMS_P1;PMS_P2;Temp;Humidity;BMP_temperature;BMP_pressure;BME280_temperature;BME280_humidity;BME280_pressure;Samples;Min_cycle;Max_cycle;Signal;HPM_P1;HPM_P2
2022/07/08 00:00:21;;;;;;;2.70;2.50;;;;;;;15.62;76.24;98035.19;6231287;28;20220;-47
2022/07/08 00:03:23;;;;;;;3.13;2.80;;;;;;;15.60;76.37;98045.97;6231391;28;20234;-47
2022/07/08 00:06:25;;;;;;;3.43;3.13;;;;;;;15.58;76.07;98031.97;6231615;28;20580;-49
2022/07/08 00:09:27;;;;;;;6.23;3.57;;;;;;;15.57;76.63;98027.66;6230924;28;20232;-44
2022/07/08 00:12:30;;;;;;;3.83;3.20;;;;;;;15.59;76.45;98038.13;6230574;28;20579;-45
2022/07/08 00:15:32;;;;;;;4.33;3.80;;;;;;;15.59;76.14;98044.28;6230615;28;20615;-45
2022/07/08 00:18:35;;;;;;;5.73;3.37;;;;;;;15.56;76.30;98036.63;6230781;28;20239;-48
2022/07/08 00:21:40;;;;;;;5.10;3.67;;;;;;;15.57;76.72;98046.28;6195312;28;20243;-48
2022/07/08 00:24:44;;;;;;;4.00;3.70;;;;;;;15.51;76.69;98039.69;6212120;28;20567;-47
2022/07/08 00:27:48;;;;;;;3.97;3.57;;;;;;;15.50;76.48;98043.31;6196172;28;20255;-46
2022/07/08 00:30:51;;;;;;;3.33;3.03;;;;;;;15.51;76.76;98047.66;6230218;28;20255;-44
2022/07/08 00:33:53;;;;;;;3.13;2.70;;;;;;;15.52;76.72;98045.84;6231106;28;20235;-45
2022/07/08 00:36:55;;;;;;;4.03;2.33;;;;;;;15.50;77.14;98043.31;6230137;28;20231;-47
2022/07/08 00:39:58;;;;;;;3.47;3.03;;;;;;;15.51;77.15;98045.00;6230170;28;20231;-44
2022/07/08 00:43:00;;;;;;;3.33;2.80;;;;;;;15.51;76.84;98044.16;6230626;28;20240;-47
2022/07/08 00:46:02;;;;;;;2.80;2.60;;;;;;;15.53;76.74;98044.84;6230705;28;20709;-48
2022/07/08 00:49:05;;;;;;;4.37;3.90;;;;;;;15.49;76.28;98041.63;6230793;28;20294;-49
2022/07/08 00:52:13;;;;;;;3.70;3.03;;;;;;;15.51;76.46;98046.81;6229766;28;20240;-51
2022/07/08 00:55:16;;;;;;;5.03;3.37;;;;;;;15.52;76.39;98041.34;6230224;28;20606;-51
2022/07/08 00:58:18;;;;;;;3.33;2.83;;;;;;;15.52;76.31;98041.34;6229817;28;20243;-49
2022/07/08 01:01:48;;;;;;;3.47;3.17;;;;;;;15.50;76.52;98037.16;6229445;28;20611;-49
2022/07/08 01:04:50;;;;;;;3.43;3.07;;;;;;;15.46;76.49;98039.28;6229320;28;20235;-51
2022/07/08 01:07:52;;;;;;;4.97;3.00;;;;;;;15.46;76.58;98041.94;6229673;28;20314;-44
2022/07/08 01:10:55;;;;;;;3.97;3.57;;;;;;;15.43;76.51;98038.72;6228736;28;20741;-44
2022/07/08 01:13:57;;;;;;;4.97;3.60;;;;;;;15.41;76.58;98038.88;6230469;28;20259;-45
2022/07/08 01:16:59;;;;;;;4.53;3.10;;;;;;;15.43;76.75;98042.22;6229906;28;20224;-44
2022/07/08 01:20:02;;;;;;;3.97;3.67;;;;;;;15.39;76.73;98040.00;6228816;28;20270;-45
2022/07/08 01:23:04;;;;;;;3.73;3.43;;;;;;;15.45;76.79;98039.44;6229040;28;20385;-45
2022/07/08 01:26:12;;;;;;;5.27;3.67;;;;;;;15.46;76.82;98049.94;6230094;28;22163;-44
2022/07/08 01:29:14;;;;;;;3.70;3.13;;;;;;;15.44;76.62;98043.06;6228125;28;20596;-47
2022/07/08 01:32:16;;;;;;;3.80;3.50;;;;;;;15.47;76.50;98040.13;6228504;28;20238;-45
2022/07/08 01:35:18;;;;;;;3.97;3.43;;;;;;;15.48;76.45;98047.94;6230196;28;20377;-47
2022/07/08 01:38:20;;;;;;;4.70;4.30;;;;;;;15.49;76.72;98038.13;6229654;28;20692;-45
2022/07/08 01:41:23;;;;;;;4.00;3.53;;;;;;;15.49;76.52;98049.63;6227893;28;20242;-44
2022/07/08 01:44:25;;;;;;;4.70;4.00;;;;;;;15.48;76.73;98047.94;6204350;28;20235;-47
2022/07/08 01:47:26;;;;;;;4.43;4.03;;;;;;;15.49;76.64;98038.97;6225858;28;20259;-49
2022/07/08 01:50:29;;;;;;;4.30;3.00;;;;;;;15.47;76.90;98043.59;6228798;28;20240;-43
2022/07/08 01:53:31;;;;;;;3.80;3.50;;;;;;;15.49;76.29;98044.28;6228492;28;20236;-45
2022/07/08 01:56:33;;;;;;;5.37;3.80;;;;;;;15.50;76.77;98045.97;6229985;28;20373;-45
2022/07/08 01:59:35;;;;;;;5.33;3.70;;;;;;;15.48;76.98;98042.63;6229381;28;20318;-47
2022/07/08 02:02:37;;;;;;;4.43;3.50;;;;;;;15.50;76.89;98039.81;6229946;28;20254;-47
2022/07/08 02:05:39;;;;;;;3.67;3.37;;;;;;;15.49;77.22;98051.44;6228951;28;20313;-44
2022/07/08 02:08:41;;;;;;;4.63;3.80;;;;;;;15.46;77.27;98043.78;6228377;28;20706;-47
2022/07/08 02:15:07;;;;;;;3.77;3.40;;;;;;;15.50;77.65;98055.78;6227364;28;20664;-46
2022/07/08 02:18:10;;;;;;;3.80;3.40;;;;;;;15.47;78.14;98058.75;6209402;28;20212;-45
2022/07/08 02:21:12;;;;;;;4.87;4.43;;;;;;;15.43;78.68;98066.16;6228388;28;20628;-44
2022/07/08 02:24:14;;;;;;;5.80;5.20;;;;;;;15.36;79.92;98059.75;6216805;28;20219;-45
2022/07/08 02:27:17;;;;;;;4.67;4.20;;;;;;;15.34;79.68;98069.69;6233652;28;20212;-44
2022/07/08 02:30:19;;;;;;;4.80;4.30;;;;;;;15.36;79.78;98072.22;6230601;28;20211;-46
2022/07/08 02:33:21;;;;;;;4.63;4.23;;;;;;;15.29;80.69;98071.94;6228883;28;20321;-45
2022/07/08 02:36:23;;;;;;;5.00;4.37;;;;;;;15.28;80.91;98072.06;6228745;28;20785;-44
2022/07/08 02:39:25;;;;;;;4.33;4.03;;;;;;;15.26;81.03;98071.41;6228080;28;20227;-47
2022/07/08 02:42:27;;;;;;;6.33;5.10;;;;;;;15.26;81.20;98064.25;6227459;28;20602;-46
2022/07/08 02:45:29;;;;;;;5.63;4.47;;;;;;;15.23;81.67;98069.84;6228854;28;20232;-48
2022/07/08 02:48:31;;;;;;;5.70;4.33;;;;;;;15.23;81.75;98069.00;6228269;28;20571;-46
2022/07/08 02:51:33;;;;;;;5.10;4.60;;;;;;;15.17;82.07;98070.44;6228030;28;20239;-44
2022/07/08 02:54:35;;;;;;;4.83;4.30;;;;;;;15.13;81.87;98069.88;6228034;28;20318;-45
2022/07/08 02:57:37;;;;;;;5.07;4.47;;;;;;;15.13;81.76;98075.19;6228014;28;20293;-45
2022/07/08 03:00:39;;;;;;;6.63;4.97;;;;;;;15.10;81.84;98083.44;6228580;28;20220;-46
2022/07/08 03:03:41;;;;;;;4.53;3.87;;;;;;;15.09;81.96;98088.88;6203168;28;20248;-45
2022/07/08 03:06:43;;;;;;;5.03;4.00;;;;;;;15.09;81.70;98084.41;6224006;28;20281;-47
2022/07/08 03:09:45;;;;;;;4.30;3.90;;;;;;;15.06;81.89;98092.69;6227831;28;20239;-44
2022/07/08 03:12:47;;;;;;;4.10;3.70;;;;;;;15.07;82.09;98097.00;6227754;28;20294;-45
2022/07/08 03:15:49;;;;;;;3.93;3.60;;;;;;;15.04;82.42;98093.81;6228066;28;20773;-45
2022/07/08 03:18:51;;;;;;;5.50;3.83;;;;;;;15.05;82.27;98104.31;6227097;28;20223;-45
2022/07/08 03:21:53;;;;;;;4.80;3.70;;;;;;;15.03;82.35;98100.09;6210189;28;20234;-44
2022/07/08 03:24:55;;;;;;;4.30;3.83;;;;;;;14.99;82.33;98110.16;6228901;28;20223;-44
2022/07/08 03:27:57;;;;;;;3.30;3.00;;;;;;;15.01;82.42;98104.72;6232314;28;20231;-44
2022/07/08 03:30:59;;;;;;;3.30;3.00;;;;;;;15.03;82.42;98116.03;6233625;28;20357;-46
2022/07/08 03:34:01;;;;;;;3.50;3.10;;;;;;;15.06;81.96;98116.63;6233003;28;20227;-45
2022/07/08 03:37:03;;;;;;;2.70;2.50;;;;;;;15.11;82.02;98125.00;6231889;28;20708;-47
2022/07/08 03:43:27;;;;;;;3.93;3.33;;;;;;;15.19;82.07;98124.28;6231746;28;20239;-46
2022/07/08 03:46:30;;;;;;;4.43;3.27;;;;;;;15.25;82.36;98129.06;6214615;28;20234;-45
2022/07/08 03:49:33;;;;;;;3.10;2.60;;;;;;;15.30;82.03;98133.94;6231427;28;20640;-46
2022/07/08 03:52:35;;;;;;;2.97;2.77;;;;;;;15.33;81.66;98133.66;6230526;28;20275;-45
2022/07/08 03:55:37;;;;;;;2.90;2.70;;;;;;;15.36;81.77;98138.69;6230691;28;20239;-47
2022/07/08 03:58:39;;;;;;;2.53;2.33;;;;;;;15.37;81.60;98146.50;6232019;28;20615;-46
2022/07/08 04:01:50;;;;;;;2.10;2.00;;;;;;;15.39;81.27;98146.38;6229959;28;20294;-48
2022/07/08 04:04:52;;;;;;;2.50;2.30;;;;;;;15.41;81.61;98163.03;6231294;28;20232;-44
2022/07/08 04:07:54;;;;;;;2.47;2.27;;;;;;;15.44;81.61;98160.94;6231084;28;20701;-45
2022/07/08 04:10:56;;;;;;;2.00;1.90;;;;;;;15.46;81.61;98166.13;6231691;28;20301;-46
2022/07/08 04:13:58;;;;;;;2.43;1.90;;;;;;;15.48;81.89;98169.47;6230166;28;20711;-47
2022/07/08 04:17:00;;;;;;;1.77;1.63;;;;;;;15.49;81.27;98171.97;6231596;28;20227;-46
2022/07/08 04:20:03;;;;;;;1.53;1.43;;;;;;;15.51;81.12;98179.81;6232084;28;20719;-48
2022/07/08 04:23:05;;;;;;;1.90;1.80;;;;;;;15.52;81.19;98173.53;6230358;28;20242;-46
2022/07/08 04:26:07;;;;;;;2.47;1.53;;;;;;;15.51;81.34;98177.16;6232065;28;20773;-49
2022/07/08 04:29:09;;;;;;;1.77;1.67;;;;;;;15.51;81.16;98178.00;6230224;28;20238;-46
2022/07/08 04:32:11;;;;;;;2.00;1.60;;;;;;;15.51;81.09;98179.81;6229487;28;20725;-48
2022/07/08 04:35:13;;;;;;;2.03;1.60;;;;;;;15.48;81.21;98186.25;6230602;28;20732;-46
2022/07/08 04:38:15;;;;;;;1.83;1.10;;;;;;;15.51;81.09;98175.34;6229058;28;20228;-48
2022/07/08 04:41:18;;;;;;;1.40;1.30;;;;;;;15.47;80.84;98183.78;6229820;28;20621;-45
2022/07/08 04:44:19;;;;;;;1.83;0.90;;;;;;;15.50;80.65;98189.63;6229712;28;20718;-52
2022/07/08 04:47:22;;;;;;;1.00;0.90;;;;;;;15.50;79.84;98194.09;6231249;28;20239;-49
2022/07/08 04:50:24;;;;;;;0.90;0.90;;;;;;;15.45;80.43;98197.22;6229407;28;20730;-51
2022/07/08 04:53:26;;;;;;;0.90;0.90;;;;;;;15.49;80.29;98206.56;6229601;28;20781;-50
2022/07/08 04:56:28;;;;;;;0.80;0.80;;;;;;;15.49;80.21;98219.03;6229166;28;20726;-46
2022/07/08 04:59:30;;;;;;;0.60;0.60;;;;;;;15.43;80.71;98219.59;6229477;28;20785;-50
2022/07/08 05:02:32;;;;;;;0.60;0.60;;;;;;;15.32;80.95;98231.22;6229093;28;20765;-45
2022/07/08 05:05:34;;;;;;;0.80;0.70;;;;;;;15.23;81.75;98242.69;6229718;28;20609;-44
2022/07/08 05:08:37;;;;;;;0.63;0.63;;;;;;;15.14;82.33;98241.69;6229229;28;20246;-44
2022/07/08 05:11:50;;;;;;;0.47;0.47;;;;;;;15.11;82.48;98257.06;6229912;28;20228;-44
2022/07/08 05:15:02;;;;;;;0.40;0.40;;;;;;;14.96;82.90;98256.66;6230089;28;20529;-46
2022/07/08 05:18:06;;;;;;;0.30;0.30;;;;;;;14.90;83.48;98266.97;6227915;28;20212;-44
2022/07/08 05:21:08;;;;;;;0.30;0.30;;;;;;;14.84;83.60;98267.50;6229289;28;20215;-44
2022/07/08 05:24:10;;;;;;;0.30;0.30;;;;;;;14.80;84.30;98274.06;6229257;28;20293;-44
2022/07/08 05:27:12;;;;;;;0.50;0.50;;;;;;;14.72;85.13;98286.22;6229067;28;20223;-45
2022/07/08 05:30:14;;;;;;;0.47;0.47;;;;;;;14.65;85.72;98282.41;6228662;28;20230;-45
2022/07/08 05:33:16;;;;;;;3.50;0.60;;;;;;;14.56;86.13;98285.88;6228728;28;20266;-45
2022/07/08 05:36:18;;;;;;;0.37;0.33;;;;;;;14.40;86.09;98289.00;6228003;28;20739;-44
2022/07/08 05:39:20;;;;;;;0.83;0.60;;;;;;;14.33;85.74;98287.81;6229476;28;20236;-43
2022/07/08 05:42:22;;;;;;;0.60;0.30;;;;;;;14.37;85.96;98293.72;6229081;28;20277;-45
2022/07/08 05:45:25;;;;;;;0.73;0.50;;;;;;;14.34;86.15;98299.28;6229061;28;20738;-46
2022/07/08 05:48:28;;;;;;;0.40;0.40;;;;;;;14.31;86.20;98302.19;6228345;28;20244;-44
2022/07/08 05:51:31;;;;;;;0.53;0.53;;;;;;;14.33;86.55;98308.22;6229017;28;20228;-48
2022/07/08 05:54:33;;;;;;;2.43;0.53;;;;;;;14.37;85.92;98307.00;6228770;28;20322;-48
2022/07/08 05:57:35;;;;;;;0.67;0.57;;;;;;;14.38;86.47;98308.66;6228757;28;20235;-44
2022/07/08 06:00:37;;;;;;;0.70;0.70;;;;;;;14.43;86.87;98317.13;6229166;28;20231;-48
2022/07/08 06:03:39;;;;;;;0.77;0.63;;;;;;;14.35;86.18;98319.56;6228987;28;20278;-45
2022/07/08 06:06:41;;;;;;;0.50;0.50;;;;;;;14.33;86.92;98316.19;6229587;28;20239;-44
2022/07/08 06:09:43;;;;;;;0.80;0.80;;;;;;;14.38;87.17;98330.75;6228526;28;20219;-47
2022/07/08 06:12:45;;;;;;;0.77;0.73;;;;;;;14.43;86.76;98333.06;6227829;28;20269;-46
2022/07/08 06:15:48;;;;;;;1.10;0.77;;;;;;;14.32;87.15;98347.22;6229056;28;20772;-46
2022/07/08 06:18:50;;;;;;;3.50;0.97;;;;;;;14.28;86.47;98343.13;6228998;28;20228;-44
2022/07/08 06:21:52;;;;;;;1.27;1.10;;;;;;;14.20;86.14;98342.09;6226477;28;20236;-45
2022/07/08 06:24:55;;;;;;;0.57;0.57;;;;;;;14.19;87.31;98351.03;6226326;28;20306;-45
2022/07/08 06:27:57;;;;;;;3.13;1.13;;;;;;;14.16;86.99;98351.31;6210919;28;20633;-44
2022/07/08 06:30:59;;;;;;;1.30;0.90;;;;;;;14.09;86.44;98358.91;6228443;28;20290;-44
2022/07/08 06:34:02;;;;;;;0.97;0.93;;;;;;;14.04;87.40;98359.31;6227682;28;20228;-45
2022/07/08 06:37:04;;;;;;;3.40;1.40;;;;;;;14.06;87.50;98375.13;6228128;28;20328;-44
2022/07/08 06:40:07;;;;;;;0.93;0.93;;;;;;;14.08;87.89;98385.59;6228053;28;20266;-46
2022/07/08 06:43:09;;;;;;;1.50;1.10;;;;;;;14.16;87.57;98383.16;6227611;28;20389;-45
2022/07/08 06:46:12;;;;;;;2.67;1.53;;;;;;;14.19;87.43;98380.22;6227428;28;20243;-45
2022/07/08 06:49:14;;;;;;;2.50;1.50;;;;;;;14.15;87.77;98389.44;6227846;28;20231;-44
2022/07/08 06:52:17;;;;;;;2.03;1.70;;;;;;;14.10;86.95;98392.47;6227189;28;20285;-45
2022/07/08 06:55:19;;;;;;;3.37;1.87;;;;;;;14.15;86.09;98403.56;6228137;28;20657;-44
2022/07/08 06:58:21;;;;;;;3.10;2.00;;;;;;;14.24;86.35;98405.44;6228347;28;20779;-44
2022/07/08 07:01:23;;;;;;;5.00;2.13;;;;;;;14.29;86.17;98416.50;6230368;28;20768;-49
2022/07/08 07:04:27;;;;;;;2.43;2.20;;;;;;;14.19;85.86;98425.34;6232217;28;20709;-44
2022/07/08 07:07:29;;;;;;;3.83;2.60;;;;;;;14.14;86.27;98427.56;6232043;28;20330;-46
2022/07/08 07:10:31;;;;;;;3.27;2.20;;;;;;;13.98;86.39;98431.47;6231482;28;20766;-48
2022/07/08 07:13:33;;;;;;;5.20;3.17;;;;;;;13.90;87.30;98435.72;6231679;28;20717;-45
2022/07/08 07:16:35;;;;;;;3.13;2.70;;;;;;;13.90;88.11;98433.91;6231311;28;20224;-46
2022/07/08 07:19:38;;;;;;;5.60;3.07;;;;;;;13.91;87.97;98434.75;6231786;28;20322;-45
2022/07/08 07:22:40;;;;;;;3.47;2.73;;;;;;;13.95;87.38;98438.84;6230865;28;20231;-44
2022/07/08 07:25:42;;;;;;;6.03;3.40;;;;;;;13.91;86.96;98446.22;6233575;28;20548;-47
2022/07/08 07:28:44;;;;;;;3.87;3.33;;;;;;;13.89;86.89;98447.28;6230692;28;20235;-45
2022/07/08 07:31:46;;;;;;;2.90;2.70;;;;;;;13.86;86.45;98444.91;6231617;28;20778;-44
2022/07/08 07:34:48;;;;;;;3.77;2.90;;;;;;;13.86;86.68;98439.59;6231738;28;20695;-48
2022/07/08 07:37:50;;;;;;;4.53;2.60;;;;;;;13.84;86.59;98454.81;6231621;28;20236;-47
2022/07/08 07:40:52;;;;;;;3.80;2.70;;;;;;;13.85;86.24;98451.19;6231448;28;20776;-48
2022/07/08 07:43:55;;;;;;;3.83;2.37;;;;;;;13.87;86.45;98459.88;6231105;28;20224;-45
2022/07/08 07:46:57;;;;;;;3.87;2.43;;;;;;;13.79;85.70;98451.66;6231613;28;20247;-47
2022/07/08 07:50:00;;;;;;;3.93;2.47;;;;;;;13.79;85.00;98462.28;6232274;28;20270;-46
2022/07/08 07:53:02;;;;;;;3.07;2.77;;;;;;;13.84;85.80;98463.59;6229699;28;20250;-47
2022/07/08 07:56:05;;;;;;;4.83;3.07;;;;;;;13.87;85.45;98459.88;6230904;28;20767;-45
2022/07/08 07:59:07;;;;;;;4.00;3.20;;;;;;;13.90;85.81;98459.59;6232375;28;20310;-45
2022/07/08 08:02:09;;;;;;;5.97;3.40;;;;;;;13.90;85.23;98455.13;6232300;28;20239;-47
2022/07/08 08:05:12;;;;;;;7.80;3.73;;;;;;;13.98;84.78;98447.38;6229500;28;20239;-47
2022/07/08 08:08:14;;;;;;;5.93;4.00;;;;;;;14.31;83.88;98451.75;6229308;28;20226;-45
2022/07/08 08:11:16;;;;;;;6.20;3.63;;;;;;;14.52;82.90;98456.25;6229463;28;20648;-46
2022/07/08 08:14:18;;;;;;;3.50;2.50;;;;;;;14.66;80.36;98454.13;6230180;28;20258;-44
2022/07/08 08:17:20;;;;;;;3.80;2.80;;;;;;;14.86;81.05;98462.22;6230176;28;20228;-46
2022/07/08 08:20:25;;;;;;;5.57;3.10;;;;;;;14.97;80.94;98462.16;6229395;28;20772;-49
2022/07/08 08:23:27;;;;;;;2.93;2.67;;;;;;;15.18;79.33;98465.59;6228518;28;20270;-48
2022/07/08 08:26:29;;;;;;;4.97;2.60;;;;;;;15.63;79.44;98454.63;6229732;28;20632;-50
2022/07/08 08:29:31;;;;;;;2.17;1.97;;;;;;;16.08;78.35;98460.31;6229043;28;20232;-48
2022/07/08 08:32:33;;;;;;;1.87;1.63;;;;;;;16.30;75.72;98456.53;6211495;28;20745;-46
2022/07/08 08:35:35;;;;;;;2.93;1.80;;;;;;;16.34;76.27;98466.78;6229483;28;20276;-51
2022/07/08 08:38:37;;;;;;;2.10;1.90;;;;;;;16.14;76.47;98454.44;6211553;28;20232;-48
2022/07/08 08:41:41;;;;;;;1.33;1.23;;;;;;;16.28;76.72;98461.16;6212587;28;20597;-46
2022/07/08 08:44:43;;;;;;;1.50;1.40;;;;;;;16.68;75.93;98463.69;6212215;28;20596;-44
2022/07/08 08:47:47;;;;;;;1.83;1.50;;;;;;;17.38;74.16;98471.25;6228673;28;20675;-44
2022/07/08 08:50:54;;;;;;;2.70;1.63;;;;;;;17.25;72.58;98478.75;6228544;28;20365;-45
2022/07/08 08:53:58;;;;;;;4.33;2.00;;;;;;;17.24;73.14;98475.25;6227794;28;20262;-43
2022/07/08 08:57:01;;;;;;;3.80;2.10;;;;;;;17.00;73.02;98485.53;6229018;28;20735;-45
2022/07/08 09:00:05;;;;;;;2.10;1.90;;;;;;;16.73;73.64;98486.28;6228502;28;20652;-45
2022/07/08 09:03:07;;;;;;;3.57;2.43;;;;;;;16.39;73.80;98488.50;6189061;28;1254872;-44
2022/07/08 09:06:10;;;;;;;4.00;2.90;;;;;;;16.30;75.15;98483.19;6212402;28;20704;-43
2022/07/08 09:09:12;;;;;;;3.17;2.73;;;;;;;15.80;74.83;98494.72;6228656;28;20212;-45
2022/07/08 09:12:22;;;;;;;4.07;2.90;;;;;;;15.57;76.03;98505.72;6229054;28;20262;-43
2022/07/08 09:15:37;;;;;;;4.63;3.33;;;;;;;15.59;76.60;98493.09;6230056;28;20738;-45
2022/07/08 09:18:39;;;;;;;6.17;3.50;;;;;;;15.52;76.33;98492.78;6229725;28;20267;-43
2022/07/08 09:21:52;;;;;;;4.23;3.20;;;;;;;15.69;76.27;98504.63;6228976;28;20232;-44
2022/07/08 09:24:56;;;;;;;6.67;2.87;;;;;;;15.64;75.78;98493.56;6228288;28;20242;-45
2022/07/08 09:27:59;;;;;;;7.53;3.07;;;;;;;15.54;76.47;98505.97;6229002;28;20405;-44
2022/07/08 09:31:06;;;;;;;5.60;3.50;;;;;;;15.33;76.80;98503.34;6229215;28;20262;-44
2022/07/08 09:34:16;;;;;;;9.30;3.67;;;;;;;15.13;77.46;98510.38;6228391;28;20687;-45
2022/07/08 09:37:19;;;;;;;7.57;3.90;;;;;;;14.94;77.26;98513.75;6229427;28;20681;-44
2022/07/08 09:40:21;;;;;;;5.97;4.37;;;;;;;14.89;77.53;98510.63;6229662;28;20281;-44
2022/07/08 09:43:26;;;;;;;8.07;3.93;;;;;;;15.10;76.80;98503.50;6229296;28;20644;-45
2022/07/08 09:46:36;;;;;;;8.03;3.40;;;;;;;15.51;76.53;98496.41;6228686;28;20231;-47
2022/07/08 09:49:41;;;;;;;6.37;3.93;;;;;;;15.76;74.66;98500.47;6227654;28;20246;-46
2022/07/08 09:52:43;;;;;;;8.40;3.43;;;;;;;15.93;73.57;98498.97;6227771;28;20234;-45
2022/07/08 09:55:51;;;;;;;9.30;3.93;;;;;;;16.28;72.47;98515.28;6228698;28;20236;-45
2022/07/08 09:58:54;;;;;;;5.27;3.60;;;;;;;16.48;71.51;98514.31;6227815;28;20588;-44
2022/07/08 10:01:57;;;;;;;4.47;3.37;;;;;;;16.62;70.20;98517.59;6228679;28;20285;-47
2022/07/08 10:05:00;;;;;;;4.40;3.43;;;;;;;16.34;70.99;98528.06;6228570;28;20578;-46
2022/07/08 10:08:02;;;;;;;7.37;3.33;;;;;;;16.28;71.64;98525.94;6228368;28;20263;-45
2022/07/08 10:11:07;;;;;;;6.27;3.73;;;;;;;15.99;71.78;98530.34;6228538;28;20696;-45
2022/07/08 10:14:09;;;;;;;5.67;3.50;;;;;;;15.77;72.80;98534.91;6226795;28;20239;-45
2022/07/08 10:17:16;;;;;;;4.83;3.07;;;;;;;15.74;73.21;98535.19;6211993;28;20642;-45
2022/07/08 10:20:22;;;;;;;7.60;3.53;;;;;;;15.73;72.99;98538.00;6227687;28;20726;-46
2022/07/08 10:23:28;;;;;;;5.00;3.17;;;;;;;15.70;72.61;98548.91;6227246;28;20239;-44
2022/07/08 10:26:36;;;;;;;5.57;3.80;;;;;;;15.49;73.64;98548.91;6228436;28;20223;-49
2022/07/08 10:29:40;;;;;;;5.47;3.43;;;;;;;15.50;73.72;98547.94;6210815;28;20234;-45
2022/07/08 10:32:46;;;;;;;5.07;3.93;;;;;;;15.40;73.60;98557.69;6228019;28;20258;-48
2022/07/08 10:36:04;;;;;;;7.27;3.37;;;;;;;15.42;74.19;98556.59;6230455;28;20733;-45
2022/07/08 10:39:06;;;;;;;8.03;4.30;;;;;;;15.40;73.52;98552.38;6232044;28;20335;-48
2022/07/08 10:42:10;;;;;;;4.60;3.43;;;;;;;15.28;73.98;98564.88;6232483;28;20211;-45
2022/07/08 10:45:17;;;;;;;4.20;3.23;;;;;;;15.31;74.26;98569.97;6215761;28;20208;-47
2022/07/08 10:48:19;;;;;;;7.50;4.07;;;;;;;15.39;74.41;98578.13;6214157;28;20257;-44
2022/07/08 10:51:24;;;;;;;5.87;3.30;;;;;;;15.56;73.83;98573.22;6233327;28;20255;-45
2022/07/08 10:54:44;;;;;;;5.33;3.60;;;;;;;15.71;74.20;98567.41;6232918;28;20334;-45
2022/07/08 10:57:57;;;;;;;5.43;3.13;;;;;;;15.66;72.10;98576.78;6232874;28;20235;-47
2022/07/08 11:01:23;;;;;;;6.00;3.23;;;;;;;15.65;71.64;98572.41;6231649;28;20910;-46
2022/07/08 11:04:34;;;;;;;4.40;3.00;;;;;;;15.72;72.12;98569.09;6232895;28;20243;-47
2022/07/08 11:07:36;;;;;;;5.33;3.40;;;;;;;15.62;72.04;98570.00;6232368;28;20693;-45
2022/07/08 11:10:40;;;;;;;4.37;2.87;;;;;;;15.64;72.04;98574.25;6232789;28;20239;-46
2022/07/08 11:13:45;;;;;;;4.13;3.00;;;;;;;15.60;72.25;98578.13;6214376;28;20322;-45
2022/07/08 11:16:47;;;;;;;6.63;3.20;;;;;;;15.60;72.04;98575.47;6214808;28;20238;-46
2022/07/08 11:19:51;;;;;;;3.43;2.90;;;;;;;15.51;72.77;98578.88;6231771;28;20231;-46
2022/07/08 11:22:53;;;;;;;5.07;3.40;;;;;;;15.60;72.53;98575.47;6231627;28;20290;-46
2022/07/08 11:25:57;;;;;;;3.07;2.80;;;;;;;15.63;72.93;98569.03;6231845;28;20236;-44
2022/07/08 11:28:59;;;;;;;4.70;2.73;;;;;;;15.76;73.05;98567.84;6232179;28;20721;-48
2022/07/08 11:32:04;;;;;;;6.07;3.30;;;;;;;15.86;72.93;98578.53;6231318;28;20235;-47
2022/07/08 11:35:07;;;;;;;5.77;3.10;;;;;;;15.78;73.70;98583.66;6232240;28;20894;-47
2022/07/08 11:38:09;;;;;;;4.83;3.17;;;;;;;15.70;73.89;98588.81;6230641;28;20747;-45
2022/07/08 11:41:12;;;;;;;3.43;2.80;;;;;;;15.58;74.34;98605.84;6231522;28;20239;-46
2022/07/08 11:44:20;;;;;;;5.77;3.53;;;;;;;15.51;74.77;98590.38;6230689;28;20230;-44
2022/07/08 11:47:22;;;;;;;7.33;4.63;;;;;;;15.60;74.69;98588.78;6231005;28;20224;-48
2022/07/08 11:50:24;;;;;;;4.43;2.93;;;;;;;15.70;74.51;98588.81;6230526;28;20219;-48
2022/07/08 11:53:26;;;;;;;4.13;2.77;;;;;;;15.72;73.95;98584.22;6230667;28;20238;-46
2022/07/08 11:56:31;;;;;;;6.20;4.30;;;;;;;15.70;74.01;98592.31;6231202;28;20258;-46
2022/07/08 11:59:34;;;;;;;4.60;2.70;;;;;;;15.60;72.82;98606.56;6212978;28;20282;-45
2022/07/08 12:02:37;;;;;;;7.90;3.00;;;;;;;15.55;73.16;98598.97;6229152;28;20227;-45
2022/07/08 12:05:39;;;;;;;8.47;4.93;;;;;;;15.57;72.79;98607.69;6231159;28;20699;-46
2022/07/08 12:08:43;;;;;;;5.87;3.40;;;;;;;15.63;73.42;98600.97;6230628;28;20224;-45
2022/07/08 12:11:51;;;;;;;7.73;2.87;;;;;;;15.51;73.17;98609.00;6230192;28;20230;-49
2022/07/08 12:14:54;;;;;;;8.17;5.03;;;;;;;15.46;73.33;98605.91;6229961;28;20234;-48
2022/07/08 12:17:58;;;;;;;3.90;3.13;;;;;;;15.49;73.16;98607.44;6230892;28;20875;-46
2022/07/08 12:21:16;;;;;;;4.17;2.43;;;;;;;15.44;73.68;98615.84;6229917;28;20707;-48
2022/07/08 12:24:27;;;;;;;8.27;3.97;;;;;;;15.34;73.69;98614.91;6229889;28;20696;-48
2022/07/08 12:27:30;;;;;;;7.23;2.63;;;;;;;15.30;74.26;98620.63;6229965;28;20710;-49
2022/07/08 12:30:32;;;;;;;5.47;2.37;;;;;;;15.29;74.30;98611.78;6230666;28;20597;-45
2022/07/08 12:33:34;;;;;;;5.30;2.10;;;;;;;15.32;73.68;98624.00;6229178;28;20610;-47
2022/07/08 12:36:36;;;;;;;5.40;2.20;;;;;;;15.26;73.51;98620.06;6230195;28;20230;-50
2022/07/08 12:39:38;;;;;;;6.10;2.10;;;;;;;15.30;73.09;98618.81;6229947;28;20603;-48
2022/07/08 12:43:08;;;;;;;12.43;6.77;;;;;;;15.29;72.78;98627.75;6229520;28;20785;-44
2022/07/08 12:46:10;;;;;;;4.27;2.33;;;;;;;15.30;72.22;98621.47;6228786;28;20605;-44
2022/07/08 12:49:22;;;;;;;4.73;1.60;;;;;;;15.34;72.20;98627.38;6229935;28;20711;-45
2022/07/08 12:52:24;;;;;;;3.00;1.87;;;;;;;15.26;72.36;98620.06;6229544;28;20750;-46
2022/07/08 12:55:27;;;;;;;4.77;1.60;;;;;;;15.17;71.98;98636.78;6229163;28;20236;-46
2022/07/08 12:58:29;;;;;;;4.80;2.10;;;;;;;15.03;72.10;98639.75;6227275;28;20231;-47
2022/07/08 13:01:32;;;;;;;4.90;2.00;;;;;;;14.95;71.41;98637.72;6211990;28;20703;-45
2022/07/08 13:04:48;;;;;;;3.57;1.80;;;;;;;14.92;70.98;98630.00;6227832;28;20243;-45
2022/07/08 13:07:50;;;;;;;4.57;2.30;;;;;;;14.93;70.47;98628.19;6229285;28;20285;-45
2022/07/08 13:10:52;;;;;;;3.77;1.77;;;;;;;15.03;70.85;98619.31;6229334;28;20228;-45
2022/07/08 13:13:54;;;;;;;11.50;7.47;;;;;;;15.15;70.72;98604.16;6229582;28;20317;-44
2022/07/08 13:16:57;;;;;;;3.67;2.20;;;;;;;15.17;69.88;98607.53;6229716;28;20243;-45
2022/07/08 13:19:59;;;;;;;6.60;2.70;;;;;;;15.19;69.81;98605.56;6228309;28;20711;-44
2022/07/08 13:23:01;;;;;;;4.30;1.90;;;;;;;15.36;69.45;98599.69;6228201;28;20244;-45
2022/07/08 13:26:04;;;;;;;3.87;1.63;;;;;;;15.60;70.00;98593.25;6229635;28;20231;-45
2022/07/08 13:29:06;;;;;;;3.77;1.93;;;;;;;15.90;69.30;98589.75;6228947;28;20236;-48
2022/07/08 13:32:08;;;;;;;2.23;1.50;;;;;;;16.08;68.96;98604.09;6229137;28;20236;-45
2022/07/08 13:35:10;;;;;;;4.23;1.63;;;;;;;16.09;67.85;98598.66;6229208;28;20235;-47
2022/07/08 13:38:12;;;;;;;4.30;2.27;;;;;;;16.28;67.50;98597.84;6229572;28;20286;-46
2022/07/08 13:41:15;;;;;;;3.70;1.63;;;;;;;16.47;66.30;98610.41;6228696;28;20738;-45
2022/07/08 13:44:17;;;;;;;3.23;1.77;;;;;;;16.37;65.08;98602.34;6228371;28;20228;-45
2022/07/08 13:47:19;;;;;;;4.63;2.00;;;;;;;16.32;64.85;98607.28;6228827;28;20235;-45
2022/07/08 13:50:21;;;;;;;4.53;1.90;;;;;;;16.27;64.36;98601.50;6228358;28;20763;-44
2022/07/08 13:53:23;;;;;;;3.07;1.30;;;;;;;16.29;64.67;98601.34;6227739;28;20235;-46
2022/07/08 13:56:25;;;;;;;3.03;1.50;;;;;;;16.39;65.72;98595.06;6228334;28;20258;-46
2022/07/08 13:59:27;;;;;;;5.97;1.57;;;;;;;16.41;63.85;98592.28;6227708;28;20326;-46
2022/07/08 14:02:29;;;;;;;3.87;1.40;;;;;;;16.27;64.14;98603.34;6227448;28;20228;-48
2022/07/08 14:05:32;;;;;;;5.00;1.80;;;;;;;16.19;64.91;98604.00;6228434;28;20232;-47
2022/07/08 14:08:34;;;;;;;3.23;1.70;;;;;;;16.23;65.24;98592.09;6228339;28;20844;-46
2022/07/08 14:11:51;;;;;;;2.90;1.40;;;;;;;16.36;65.86;98598.03;6228418;28;20240;-45
2022/07/08 14:14:52;;;;;;;6.73;1.77;;;;;;;16.41;65.81;98608.25;6228015;28;20319;-47
2022/07/08 14:17:55;;;;;;;3.40;2.20;;;;;;;16.39;65.39;98607.56;6227568;28;20239;-45
2022/07/08 14:20:57;;;;;;;3.93;1.47;;;;;;;16.24;64.55;98602.63;6228800;28;20710;-45
2022/07/08 14:23:59;;;;;;;3.27;1.60;;;;;;;16.30;65.07;98601.22;6228148;28;20354;-47
2022/07/08 14:27:02;;;;;;;5.27;1.60;;;;;;;16.30;64.83;98601.22;6228127;28;20691;-47
2022/07/08 14:30:05;;;;;;;5.10;1.63;;;;;;;16.32;64.86;98596.63;6228223;28;20293;-45